sensor_id;sensor_type;location;lat;lon;timestamp;temperature;humidity
7014;DHT22;3547;50.774;12.918;2024-02-21T00:01:07;6.30;1.00
7014;DHT22;3547;50.774;12.918;2024-02-21T00:03:33;6.30;1.00
7014;DHT22;3547;50.774;12.918;2024-02-21T00:05:59;6.30;1.00
7014;DHT22;3547;50.774;12.918;2024-02-21T00:08:26;6.20;1.00
7014;DHT22;3547;50.774;12.918;2024-02-21T00:10:52;6.20;1.00
7014;DHT22;3547;50.774;12.918;2024-02-21T00:13:18;6.20;1.00
7014;DHT22;3547;50.774;12.918;2024-02-21T00:15:44;6.20;1.00
7014;DHT22;3547;50.774;12.918;2024-02-21T00:18:10;6.20;1.00
7014;DHT22;3547;50.774;12.918;2024-02-21T00:20:36;6.20;1.00
7014;DHT22;3547;50.774;12.918;2024-02-21T00:23:03;6.20;1.00
7014;DHT22;3547;50.774;12.918;2024-02-21T00:25:29;6.20;1.00
7014;DHT22;3547;50.774;12.918;2024-02-21T00:27:55;6.10;1.00
7014;DHT22;3547;50.774;12.918;2024-02-21T00:30:21;6.20;1.00
7014;DHT22;3547;50.774;12.918;2024-02-21T00:32:48;6.20;1.00
7014;DHT22;3547;50.774;12.918;2024-02-21T00:35:14;6.20;1.00
7014;DHT22;3547;50.774;12.918;2024-02-21T00:37:40;6.20;1.00
7014;DHT22;3547;50.774;12.918;2024-02-21T00:40:07;6.20;1.00
7014;DHT22;3547;50.774;12.918;2024-02-21T00:42:33;6.10;1.00
7014;DHT22;3547;50.774;12.918;2024-02-21T00:44:59;6.10;1.00
7014;DHT22;3547;50.774;12.918;2024-02-21T00:47:25;6.10;1.00
7014;DHT22;3547;50.774;12.918;2024-02-21T00:49:52;6.10;1.00
7014;DHT22;3547;50.774;12.918;2024-02-21T00:52:18;6.00;1.00
7014;DHT22;3547;50.774;12.918;2024-02-21T00:54:44;6.00;1.00
7014;DHT22;3547;50.774;12.918;2024-02-21T00:57:10;5.90;1.00
7014;DHT22;3547;50.774;12.918;2024-02-21T00:59:37;5.90;1.00
7014;DHT22;3547;50.774;12.918;2024-02-21T01:02:03;5.90;1.00
7014;DHT22;3547;50.774;12.918;2024-02-21T01:04:29;5.80;1.00
7014;DHT22;3547;50.774;12.918;2024-02-21T01:06:55;5.80;1.00
7014;DHT22;3547;50.774;12.918;2024-02-21T01:09:22;5.80;1.00
7014;DHT22;3547;50.774;12.918;2024-02-21T01:11:48;5.70;1.00
7014;DHT22;3547;50.774;12.918;2024-02-21T01:14:14;5.70;1.00
7014;DHT22;3547;50.774;12.918;2024-02-21T01:16:40;5.70;1.00
7014;DHT22;3547;50.774;12.918;2024-02-21T01:22:29;5.70;1.00
7014;DHT22;3547;50.774;12.918;2024-02-21T01:24:55;5.70;1.00
7014;DHT22;3547;50.774;12.918;2024-02-21T01:27:21;5.70;1.00
7014;DHT22;3547;50.774;12.918;2024-02-21T01:29:47;5.80;1.00
7014;DHT22;3547;50.774;12.918;2024-02-21T01:32:16;5.80;1.00
7014;DHT22;3547;50.774;12.918;2024-02-21T01:34:42;5.80;1.00
7014;DHT22;3547;50.774;12.918;2024-02-21T01:37:09;5.80;1.00
7014;DHT22;3547;50.774;12.918;2024-02-21T01:39:35;5.80;1.00
7014;DHT22;3547;50.774;12.918;2024-02-21T01:42:01;5.80;1.00
7014;DHT22;3547;50.774;12.918;2024-02-21T01:44:27;5.80;1.00
7014;DHT22;3547;50.774;12.918;2024-02-21T01:46:54;5.70;1.00
7014;DHT22;3547;50.774;12.918;2024-02-21T01:49:21;5.80;1.00
7014;DHT22;3547;50.774;12.918;2024-02-21T01:51:47;5.80;1.00
7014;DHT22;3547;50.774;12.918;2024-02-21T01:54:15;5.90;1.00
7014;DHT22;3547;50.774;12.918;2024-02-21T01:56:43;5.90;1.00
7014;DHT22;3547;50.774;12.918;2024-02-21T01:59:10;5.90;1.00
7014;DHT22;3547;50.774;12.918;2024-02-21T02:01:37;5.90;1.00
7014;DHT22;3547;50.774;12.918;2024-02-21T02:04:04;6.00;1.00
7014;DHT22;3547;50.774;12.918;2024-02-21T02:06:31;6.00;1.00
7014;DHT22;3547;50.774;12.918;2024-02-21T02:08:57;5.90;1.00
7014;DHT22;3547;50.774;12.918;2024-02-21T02:11:24;6.00;1.00
7014;DHT22;3547;50.774;12.918;2024-02-21T02:13:50;6.00;1.00
7014;DHT22;3547;50.774;12.918;2024-02-21T02:16:16;6.00;1.00
7014;DHT22;3547;50.774;12.918;2024-02-21T02:18:42;6.00;1.00
7014;DHT22;3547;50.774;12.918;2024-02-21T02:21:16;6.00;1.00
7014;DHT22;3547;50.774;12.918;2024-02-21T02:27:11;6.00;1.00
7014;DHT22;3547;50.774;12.918;2024-02-21T02:29:37;6.00;1.00
7014;DHT22;3547;50.774;12.918;2024-02-21T02:32:03;6.00;1.00
7014;DHT22;3547;50.774;12.918;2024-02-21T02:34:29;6.00;1.00
7014;DHT22;3547;50.774;12.918;2024-02-21T02:36:56;6.00;1.00
7014;DHT22;3547;50.774;12.918;2024-02-21T02:39:22;6.10;1.00
7014;DHT22;3547;50.774;12.918;2024-02-21T02:41:49;6.00;1.00
7014;DHT22;3547;50.774;12.918;2024-02-21T02:44:15;6.00;1.00
7014;DHT22;3547;50.774;12.918;2024-02-21T02:46:42;6.00;1.00
7014;DHT22;3547;50.774;12.918;2024-02-21T02:49:08;5.90;1.00
7014;DHT22;3547;50.774;12.918;2024-02-21T02:51:34;6.00;1.00
7014;DHT22;3547;50.774;12.918;2024-02-21T02:54:00;5.90;1.00
7014;DHT22;3547;50.774;12.918;2024-02-21T02:56:26;6.00;1.00
7014;DHT22;3547;50.774;12.918;2024-02-21T02:58:53;5.90;1.00
7014;DHT22;3547;50.774;12.918;2024-02-21T03:01:19;5.90;1.00
7014;DHT22;3547;50.774;12.918;2024-02-21T03:03:45;5.90;1.00
7014;DHT22;3547;50.774;12.918;2024-02-21T03:06:13;5.90;1.00
7014;DHT22;3547;50.774;12.918;2024-02-21T03:08:39;5.90;1.00
7014;DHT22;3547;50.774;12.918;2024-02-21T03:11:06;6.00;1.00
7014;DHT22;3547;50.774;12.918;2024-02-21T03:13:32;6.00;1.00
7014;DHT22;3547;50.774;12.918;2024-02-21T03:15:58;5.90;1.00
7014;DHT22;3547;50.774;12.918;2024-02-21T03:18:24;5.90;1.00
7014;DHT22;3547;50.774;12.918;2024-02-21T03:20:50;5.90;1.00
7014;DHT22;3547;50.774;12.918;2024-02-21T03:23:17;5.90;1.00
7014;DHT22;3547;50.774;12.918;2024-02-21T03:25:43;6.00;1.00
7014;DHT22;3547;50.774;12.918;2024-02-21T03:28:09;6.00;1.00
7014;DHT22;3547;50.774;12.918;2024-02-21T03:30:35;6.00;1.00
7014;DHT22;3547;50.774;12.918;2024-02-21T03:33:02;6.00;1.00
7014;DHT22;3547;50.774;12.918;2024-02-21T03:35:28;6.00;1.00
7014;DHT22;3547;50.774;12.918;2024-02-21T03:37:54;6.00;1.00
7014;DHT22;3547;50.774;12.918;2024-02-21T03:40:20;6.00;1.00
7014;DHT22;3547;50.774;12.918;2024-02-21T03:42:46;6.00;1.00
7014;DHT22;3547;50.774;12.918;2024-02-21T03:45:13;6.00;1.00
7014;DHT22;3547;50.774;12.918;2024-02-21T03:47:39;6.00;1.00
7014;DHT22;3547;50.774;12.918;2024-02-21T03:50:06;6.00;1.00
7014;DHT22;3547;50.774;12.918;2024-02-21T03:52:32;6.00;1.00
7014;DHT22;3547;50.774;12.918;2024-02-21T03:54:58;6.00;1.00
7014;DHT22;3547;50.774;12.918;2024-02-21T03:57:24;6.00;1.00
7014;DHT22;3547;50.774;12.918;2024-02-21T03:59:51;6.00;1.00
7014;DHT22;3547;50.774;12.918;2024-02-21T04:02:18;6.10;1.00
7014;DHT22;3547;50.774;12.918;2024-02-21T04:04:44;6.10;1.00
7014;DHT22;3547;50.774;12.918;2024-02-21T04:07:13;6.10;1.00
7014;DHT22;3547;50.774;12.918;2024-02-21T04:09:39;6.10;1.00
7014;DHT22;3547;50.774;12.918;2024-02-21T04:12:08;6.20;1.00
7014;DHT22;3547;50.774;12.918;2024-02-21T04:14:35;6.20;1.00
7014;DHT22;3547;50.774;12.918;2024-02-21T04:17:01;6.10;1.00
7014;DHT22;3547;50.774;12.918;2024-02-21T04:19:28;6.10;1.00
7014;DHT22;3547;50.774;12.918;2024-02-21T04:21:54;6.20;1.00
7014;DHT22;3547;50.774;12.918;2024-02-21T04:24:20;6.10;1.00
7014;DHT22;3547;50.774;12.918;2024-02-21T04:26:46;6.10;1.00
7014;DHT22;3547;50.774;12.918;2024-02-21T04:29:12;6.10;1.00
7014;DHT22;3547;50.774;12.918;2024-02-21T04:31:38;6.10;1.00
7014;DHT22;3547;50.774;12.918;2024-02-21T04:34:06;6.10;1.00
7014;DHT22;3547;50.774;12.918;2024-02-21T04:36:32;6.10;1.00
7014;DHT22;3547;50.774;12.918;2024-02-21T04:38:58;6.10;1.00
7014;DHT22;3547;50.774;12.918;2024-02-21T04:41:24;6.00;1.00
7014;DHT22;3547;50.774;12.918;2024-02-21T04:43:51;6.00;1.00
7014;DHT22;3547;50.774;12.918;2024-02-21T04:46:17;6.00;1.00
7014;DHT22;3547;50.774;12.918;2024-02-21T04:48:43;6.00;1.00
7014;DHT22;3547;50.774;12.918;2024-02-21T04:51:09;6.00;1.00
7014;DHT22;3547;50.774;12.918;2024-02-21T04:53:35;5.90;1.00
7014;DHT22;3547;50.774;12.918;2024-02-21T04:56:01;6.00;1.00
7014;DHT22;3547;50.774;12.918;2024-02-21T04:58:27;6.00;1.00
7014;DHT22;3547;50.774;12.918;2024-02-21T05:00:53;6.00;1.00
7014;DHT22;3547;50.774;12.918;2024-02-21T05:03:21;6.00;1.00
7014;DHT22;3547;50.774;12.918;2024-02-21T05:05:47;6.00;1.00
7014;DHT22;3547;50.774;12.918;2024-02-21T05:08:13;6.00;1.00
7014;DHT22;3547;50.774;12.918;2024-02-21T05:10:39;6.00;1.00
7014;DHT22;3547;50.774;12.918;2024-02-21T05:13:05;6.00;1.00
7014;DHT22;3547;50.774;12.918;2024-02-21T05:15:32;6.00;1.00
7014;DHT22;3547;50.774;12.918;2024-02-21T05:17:58;6.00;1.00
7014;DHT22;3547;50.774;12.918;2024-02-21T05:20:24;6.00;1.50
7014;DHT22;3547;50.774;12.918;2024-02-21T05:22:50;5.90;1.40
7014;DHT22;3547;50.774;12.918;2024-02-21T05:25:16;5.90;4.30
7014;DHT22;3547;50.774;12.918;2024-02-21T05:27:42;5.90;3.40
7014;DHT22;3547;50.774;12.918;2024-02-21T05:30:09;5.90;6.50
7014;DHT22;3547;50.774;12.918;2024-02-21T05:32:35;5.90;5.90
7014;DHT22;3547;50.774;12.918;2024-02-21T05:35:02;5.90;5.90
7014;DHT22;3547;50.774;12.918;2024-02-21T05:37:28;5.90;7.50
7014;DHT22;3547;50.774;12.918;2024-02-21T05:39:55;5.90;7.20
7014;DHT22;3547;50.774;12.918;2024-02-21T05:42:21;5.90;6.00
7014;DHT22;3547;50.774;12.918;2024-02-21T05:44:50;5.90;5.70
7014;DHT22;3547;50.774;12.918;2024-02-21T05:47:16;6.00;2.50
7014;DHT22;3547;50.774;12.918;2024-02-21T05:49:43;6.00;5.60
7014;DHT22;3547;50.774;12.918;2024-02-21T05:52:09;6.00;4.70
7014;DHT22;3547;50.774;12.918;2024-02-21T05:54:38;6.00;5.80
7014;DHT22;3547;50.774;12.918;2024-02-21T05:57:05;6.00;6.90
7014;DHT22;3547;50.774;12.918;2024-02-21T05:59:31;6.00;7.70
7014;DHT22;3547;50.774;12.918;2024-02-21T06:02:01;6.00;5.60
7014;DHT22;3547;50.774;12.918;2024-02-21T06:04:29;6.00;1.70
7014;DHT22;3547;50.774;12.918;2024-02-21T06:06:55;6.10;1.70
7014;DHT22;3547;50.774;12.918;2024-02-21T06:09:21;6.10;2.00
7014;DHT22;3547;50.774;12.918;2024-02-21T06:11:47;6.10;1.40
7014;DHT22;3547;50.774;12.918;2024-02-21T06:14:15;6.00;2.60
7014;DHT22;3547;50.774;12.918;2024-02-21T06:16:43;6.00;1.00
7014;DHT22;3547;50.774;12.918;2024-02-21T06:19:09;6.00;3.10
7014;DHT22;3547;50.774;12.918;2024-02-21T06:21:36;6.00;1.00
7014;DHT22;3547;50.774;12.918;2024-02-21T06:24:03;5.90;3.60
7014;DHT22;3547;50.774;12.918;2024-02-21T06:26:29;5.80;1.70
7014;DHT22;3547;50.774;12.918;2024-02-21T06:28:56;5.80;1.90
7014;DHT22;3547;50.774;12.918;2024-02-21T06:31:24;5.80;1.90
7014;DHT22;3547;50.774;12.918;2024-02-21T06:33:51;5.80;2.20
7014;DHT22;3547;50.774;12.918;2024-02-21T06:36:18;5.80;2.00
7014;DHT22;3547;50.774;12.918;2024-02-21T06:38:48;5.70;2.30
7014;DHT22;3547;50.774;12.918;2024-02-21T06:41:16;5.80;4.10
7014;DHT22;3547;50.774;12.918;2024-02-21T06:43:47;5.80;4.50
7014;DHT22;3547;50.774;12.918;2024-02-21T06:46:27;5.80;4.40
7014;DHT22;3547;50.774;12.918;2024-02-21T06:48:55;5.90;5.10
7014;DHT22;3547;50.774;12.918;2024-02-21T06:51:24;5.90;5.20
7014;DHT22;3547;50.774;12.918;2024-02-21T06:53:54;5.90;5.30
7014;DHT22;3547;50.774;12.918;2024-02-21T06:56:22;5.90;5.00
7014;DHT22;3547;50.774;12.918;2024-02-21T06:58:52;5.90;4.40
7014;DHT22;3547;50.774;12.918;2024-02-21T07:01:18;5.90;2.40
7014;DHT22;3547;50.774;12.918;2024-02-21T07:03:45;5.90;2.40
7014;DHT22;3547;50.774;12.918;2024-02-21T07:06:11;6.00;1.00
7014;DHT22;3547;50.774;12.918;2024-02-21T07:08:37;6.00;1.00
7014;DHT22;3547;50.774;12.918;2024-02-21T07:11:04;6.00;1.60
7014;DHT22;3547;50.774;12.918;2024-02-21T07:13:32;6.00;1.40
7014;DHT22;3547;50.774;12.918;2024-02-21T07:15:58;6.00;1.00
7014;DHT22;3547;50.774;12.918;2024-02-21T07:18:25;6.00;1.00
7014;DHT22;3547;50.774;12.918;2024-02-21T07:20:51;6.00;1.00
7014;DHT22;3547;50.774;12.918;2024-02-21T07:23:18;6.00;1.00
7014;DHT22;3547;50.774;12.918;2024-02-21T07:25:45;6.00;1.00
7014;DHT22;3547;50.774;12.918;2024-02-21T07:28:11;6.00;1.50
7014;DHT22;3547;50.774;12.918;2024-02-21T07:30:39;6.00;1.00
7014;DHT22;3547;50.774;12.918;2024-02-21T07:33:05;6.00;1.00
7014;DHT22;3547;50.774;12.918;2024-02-21T07:35:33;6.10;1.00
7014;DHT22;3547;50.774;12.918;2024-02-21T07:37:59;6.10;1.00
7014;DHT22;3547;50.774;12.918;2024-02-21T07:40:25;6.20;1.00
7014;DHT22;3547;50.774;12.918;2024-02-21T07:42:51;6.30;1.00
7014;DHT22;3547;50.774;12.918;2024-02-21T07:45:18;6.40;1.00
7014;DHT22;3547;50.774;12.918;2024-02-21T07:47:44;6.60;2.20
7014;DHT22;3547;50.774;12.918;2024-02-21T07:50:10;6.70;1.00
7014;DHT22;3547;50.774;12.918;2024-02-21T07:52:36;6.70;1.00
7014;DHT22;3547;50.774;12.918;2024-02-21T07:55:02;6.80;1.00
7014;DHT22;3547;50.774;12.918;2024-02-21T07:57:29;6.90;1.00
7014;DHT22;3547;50.774;12.918;2024-02-21T07:59:55;7.00;1.00
7014;DHT22;3547;50.774;12.918;2024-02-21T08:02:21;7.10;1.00
7014;DHT22;3547;50.774;12.918;2024-02-21T08:04:47;7.20;1.20
7014;DHT22;3547;50.774;12.918;2024-02-21T08:07:13;7.30;1.00
7014;DHT22;3547;50.774;12.918;2024-02-21T08:09:40;7.10;1.00
7014;DHT22;3547;50.774;12.918;2024-02-21T08:12:06;7.00;1.00
7014;DHT22;3547;50.774;12.918;2024-02-21T08:14:33;7.00;1.00
7014;DHT22;3547;50.774;12.918;2024-02-21T08:16:59;6.90;1.00
7014;DHT22;3547;50.774;12.918;2024-02-21T08:19:25;6.90;1.00
7014;DHT22;3547;50.774;12.918;2024-02-21T08:21:51;7.00;1.00
7014;DHT22;3547;50.774;12.918;2024-02-21T08:24:17;6.90;1.00
7014;DHT22;3547;50.774;12.918;2024-02-21T08:26:44;6.90;1.00
7014;DHT22;3547;50.774;12.918;2024-02-21T08:29:11;6.90;1.00
7014;DHT22;3547;50.774;12.918;2024-02-21T08:31:37;7.00;1.00
7014;DHT22;3547;50.774;12.918;2024-02-21T08:34:04;6.80;1.00
7014;DHT22;3547;50.774;12.918;2024-02-21T08:36:30;6.90;1.00
7014;DHT22;3547;50.774;12.918;2024-02-21T08:38:57;6.90;1.00
7014;DHT22;3547;50.774;12.918;2024-02-21T08:41:24;7.00;1.00
7014;DHT22;3547;50.774;12.918;2024-02-21T08:43:51;7.20;1.00
7014;DHT22;3547;50.774;12.918;2024-02-21T08:46:18;7.30;1.00
7014;DHT22;3547;50.774;12.918;2024-02-21T08:48:44;7.50;1.00
7014;DHT22;3547;50.774;12.918;2024-02-21T08:51:14;7.50;1.00
7014;DHT22;3547;50.774;12.918;2024-02-21T08:53:40;7.70;1.00
7014;DHT22;3547;50.774;12.918;2024-02-21T08:56:06;7.50;1.00
7014;DHT22;3547;50.774;12.918;2024-02-21T08:58:42;7.40;1.00
7014;DHT22;3547;50.774;12.918;2024-02-21T09:01:08;7.40;1.00
7014;DHT22;3547;50.774;12.918;2024-02-21T09:03:43;7.60;1.00
7014;DHT22;3547;50.774;12.918;2024-02-21T09:06:11;7.60;1.00
7014;DHT22;3547;50.774;12.918;2024-02-21T09:08:39;7.60;1.00
7014;DHT22;3547;50.774;12.918;2024-02-21T09:11:06;7.70;1.00
7014;DHT22;3547;50.774;12.918;2024-02-21T09:13:32;7.70;1.00
7014;DHT22;3547;50.774;12.918;2024-02-21T09:15:59;7.70;1.00
7014;DHT22;3547;50.774;12.918;2024-02-21T09:18:26;8.00;1.00
7014;DHT22;3547;50.774;12.918;2024-02-21T09:20:53;8.10;1.00
7014;DHT22;3547;50.774;12.918;2024-02-21T09:23:19;7.90;1.00
7014;DHT22;3547;50.774;12.918;2024-02-21T09:25:48;7.90;1.00
7014;DHT22;3547;50.774;12.918;2024-02-21T09:28:15;7.80;1.00
7014;DHT22;3547;50.774;12.918;2024-02-21T09:30:43;7.70;1.00
7014;DHT22;3547;50.774;12.918;2024-02-21T09:33:10;7.60;1.00
7014;DHT22;3547;50.774;12.918;2024-02-21T09:35:36;7.70;1.00
7014;DHT22;3547;50.774;12.918;2024-02-21T09:38:02;7.90;1.00
7014;DHT22;3547;50.774;12.918;2024-02-21T09:40:29;8.10;1.00
7014;DHT22;3547;50.774;12.918;2024-02-21T09:43:03;8.00;1.00
7014;DHT22;3547;50.774;12.918;2024-02-21T09:45:30;7.70;1.00
7014;DHT22;3547;50.774;12.918;2024-02-21T09:48:19;7.70;1.00
7014;DHT22;3547;50.774;12.918;2024-02-21T09:50:50;8.00;1.00
7014;DHT22;3547;50.774;12.918;2024-02-21T09:53:18;8.00;1.00
7014;DHT22;3547;50.774;12.918;2024-02-21T09:55:45;8.10;1.00
7014;DHT22;3547;50.774;12.918;2024-02-21T09:58:12;8.10;1.00
7014;DHT22;3547;50.774;12.918;2024-02-21T10:00:40;8.10;1.00
7014;DHT22;3547;50.774;12.918;2024-02-21T10:03:06;8.00;1.00
7014;DHT22;3547;50.774;12.918;2024-02-21T10:05:36;8.10;1.00
7014;DHT22;3547;50.774;12.918;2024-02-21T10:08:03;8.30;1.00
7014;DHT22;3547;50.774;12.918;2024-02-21T10:10:40;8.40;1.00
7014;DHT22;3547;50.774;12.918;2024-02-21T10:13:06;8.40;1.00
7014;DHT22;3547;50.774;12.918;2024-02-21T10:15:33;8.40;1.00
7014;DHT22;3547;50.774;12.918;2024-02-21T10:18:01;8.40;1.00
7014;DHT22;3547;50.774;12.918;2024-02-21T10:20:29;8.30;1.00
7014;DHT22;3547;50.774;12.918;2024-02-21T10:23:05;8.90;1.00
7014;DHT22;3547;50.774;12.918;2024-02-21T10:25:35;9.20;1.00
7014;DHT22;3547;50.774;12.918;2024-02-21T10:28:04;9.70;1.00
7014;DHT22;3547;50.774;12.918;2024-02-21T10:30:30;9.90;1.00
7014;DHT22;3547;50.774;12.918;2024-02-21T10:32:56;10.20;1.00
7014;DHT22;3547;50.774;12.918;2024-02-21T10:35:32;9.70;1.00
7014;DHT22;3547;50.774;12.918;2024-02-21T10:37:59;10.10;1.00
7014;DHT22;3547;50.774;12.918;2024-02-21T10:40:27;10.30;1.00
7014;DHT22;3547;50.774;12.918;2024-02-21T10:43:00;10.10;1.00
7014;DHT22;3547;50.774;12.918;2024-02-21T10:45:32;10.00;1.00
7014;DHT22;3547;50.774;12.918;2024-02-21T10:48:13;10.30;1.00
7014;DHT22;3547;50.774;12.918;2024-02-21T10:51:21;10.20;1.00
7014;DHT22;3547;50.774;12.918;2024-02-21T10:54:28;10.00;1.00
7014;DHT22;3547;50.774;12.918;2024-02-21T10:56:50;9.80;1.00
7014;DHT22;3547;50.774;12.918;2024-02-21T10:59:17;10.10;1.00
7014;DHT22;3547;50.774;12.918;2024-02-21T11:01:44;10.10;1.00
7014;DHT22;3547;50.774;12.918;2024-02-21T11:04:11;10.10;1.00
7014;DHT22;3547;50.774;12.918;2024-02-21T11:06:40;9.70;1.00
7014;DHT22;3547;50.774;12.918;2024-02-21T11:09:09;9.70;1.00
7014;DHT22;3547;50.774;12.918;2024-02-21T11:11:43;9.50;1.00
7014;DHT22;3547;50.774;12.918;2024-02-21T11:14:11;9.70;1.00
7014;DHT22;3547;50.774;12.918;2024-02-21T11:16:43;9.80;1.00
7014;DHT22;3547;50.774;12.918;2024-02-21T11:19:22;9.90;1.00
7014;DHT22;3547;50.774;12.918;2024-02-21T11:21:49;10.00;1.00
7014;DHT22;3547;50.774;12.918;2024-02-21T11:24:34;10.20;1.00
7014;DHT22;3547;50.774;12.918;2024-02-21T11:27:15;10.40;1.00
7014;DHT22;3547;50.774;12.918;2024-02-21T11:29:45;10.60;1.00
7014;DHT22;3547;50.774;12.918;2024-02-21T11:32:15;10.70;1.00
7014;DHT22;3547;50.774;12.918;2024-02-21T11:34:41;10.90;1.00
7014;DHT22;3547;50.774;12.918;2024-02-21T11:37:18;11.10;1.00
7014;DHT22;3547;50.774;12.918;2024-02-21T11:39:44;11.20;1.00
7014;DHT22;3547;50.774;12.918;2024-02-21T11:42:10;10.90;1.00
7014;DHT22;3547;50.774;12.918;2024-02-21T11:44:38;10.80;1.00
7014;DHT22;3547;50.774;12.918;2024-02-21T11:47:06;10.70;1.00
7014;DHT22;3547;50.774;12.918;2024-02-21T11:49:42;10.90;1.00
7014;DHT22;3547;50.774;12.918;2024-02-21T11:52:08;11.10;1.00
7014;DHT22;3547;50.774;12.918;2024-02-21T11:54:35;11.40;1.00
7014;DHT22;3547;50.774;12.918;2024-02-21T11:57:01;11.50;1.00
7014;DHT22;3547;50.774;12.918;2024-02-21T11:59:30;11.40;1.00
7014;DHT22;3547;50.774;12.918;2024-02-21T12:01:58;11.60;1.00
7014;DHT22;3547;50.774;12.918;2024-02-21T12:04:25;11.90;1.00
7014;DHT22;3547;50.774;12.918;2024-02-21T12:06:53;12.10;1.00
7014;DHT22;3547;50.774;12.918;2024-02-21T12:09:20;12.30;1.00
7014;DHT22;3547;50.774;12.918;2024-02-21T12:12:19;11.90;1.00
7014;DHT22;3547;50.774;12.918;2024-02-21T12:14:45;11.60;1.00
7014;DHT22;3547;50.774;12.918;2024-02-21T12:17:12;11.40;1.00
7014;DHT22;3547;50.774;12.918;2024-02-21T12:19:38;11.10;1.00
7014;DHT22;3547;50.774;12.918;2024-02-21T12:22:04;11.00;1.00
7014;DHT22;3547;50.774;12.918;2024-02-21T12:24:31;11.20;1.00
7014;DHT22;3547;50.774;12.918;2024-02-21T12:26:58;10.90;1.00
7014;DHT22;3547;50.774;12.918;2024-02-21T12:29:24;10.70;1.00
7014;DHT22;3547;50.774;12.918;2024-02-21T12:31:54;10.80;1.00
7014;DHT22;3547;50.774;12.918;2024-02-21T12:34:20;11.10;1.00
7014;DHT22;3547;50.774;12.918;2024-02-21T12:36:48;11.30;1.00
7014;DHT22;3547;50.774;12.918;2024-02-21T12:39:14;11.50;1.00
7014;DHT22;3547;50.774;12.918;2024-02-21T12:41:42;11.40;1.00
7014;DHT22;3547;50.774;12.918;2024-02-21T12:44:10;11.50;1.00
7014;DHT22;3547;50.774;12.918;2024-02-21T12:46:45;11.50;1.00
7014;DHT22;3547;50.774;12.918;2024-02-21T12:49:11;11.10;1.00
7014;DHT22;3547;50.774;12.918;2024-02-21T12:51:38;11.30;1.00
7014;DHT22;3547;50.774;12.918;2024-02-21T12:54:05;11.20;1.00
7014;DHT22;3547;50.774;12.918;2024-02-21T12:56:31;11.30;1.00
7014;DHT22;3547;50.774;12.918;2024-02-21T12:58:58;11.30;1.00
7014;DHT22;3547;50.774;12.918;2024-02-21T13:01:24;11.20;1.00
7014;DHT22;3547;50.774;12.918;2024-02-21T13:07:12;11.10;1.00
7014;DHT22;3547;50.774;12.918;2024-02-21T13:09:39;11.30;1.00
7014;DHT22;3547;50.774;12.918;2024-02-21T13:12:06;11.50;1.00
7014;DHT22;3547;50.774;12.918;2024-02-21T13:14:33;11.40;1.00
7014;DHT22;3547;50.774;12.918;2024-02-21T13:17:01;11.30;1.00
7014;DHT22;3547;50.774;12.918;2024-02-21T13:19:27;11.20;1.00
7014;DHT22;3547;50.774;12.918;2024-02-21T13:21:53;11.50;1.00
7014;DHT22;3547;50.774;12.918;2024-02-21T13:24:19;11.80;1.00
7014;DHT22;3547;50.774;12.918;2024-02-21T13:26:45;11.40;1.00
7014;DHT22;3547;50.774;12.918;2024-02-21T13:29:11;11.30;1.00
7014;DHT22;3547;50.774;12.918;2024-02-21T13:31:38;11.20;1.00
7014;DHT22;3547;50.774;12.918;2024-02-21T13:34:04;11.30;1.00
7014;DHT22;3547;50.774;12.918;2024-02-21T13:36:30;11.10;1.00
7014;DHT22;3547;50.774;12.918;2024-02-21T13:38:56;11.30;1.00
7014;DHT22;3547;50.774;12.918;2024-02-21T13:41:22;11.40;1.00
7014;DHT22;3547;50.774;12.918;2024-02-21T13:43:49;11.70;1.00
7014;DHT22;3547;50.774;12.918;2024-02-21T13:46:15;11.70;1.00
7014;DHT22;3547;50.774;12.918;2024-02-21T13:48:41;11.40;1.00
7014;DHT22;3547;50.774;12.918;2024-02-21T13:51:08;11.50;1.00
7014;DHT22;3547;50.774;12.918;2024-02-21T13:53:34;11.40;1.00
7014;DHT22;3547;50.774;12.918;2024-02-21T13:56:00;11.50;1.00
7014;DHT22;3547;50.774;12.918;2024-02-21T13:58:26;11.60;1.00
7014;DHT22;3547;50.774;12.918;2024-02-21T14:00:53;11.80;1.00
7014;DHT22;3547;50.774;12.918;2024-02-21T14:03:19;11.90;1.00
7014;DHT22;3547;50.774;12.918;2024-02-21T14:05:46;11.70;1.00
7014;DHT22;3547;50.774;12.918;2024-02-21T14:08:14;11.60;1.00
7014;DHT22;3547;50.774;12.918;2024-02-21T14:10:40;11.50;1.00
7014;DHT22;3547;50.774;12.918;2024-02-21T14:13:06;11.20;1.00
7014;DHT22;3547;50.774;12.918;2024-02-21T14:15:33;11.30;1.00
7014;DHT22;3547;50.774;12.918;2024-02-21T14:17:59;11.50;1.00
7014;DHT22;3547;50.774;12.918;2024-02-21T14:20:25;11.40;1.00
7014;DHT22;3547;50.774;12.918;2024-02-21T14:22:52;11.40;1.00
7014;DHT22;3547;50.774;12.918;2024-02-21T14:25:21;11.30;1.00
7014;DHT22;3547;50.774;12.918;2024-02-21T14:27:50;11.20;1.00
7014;DHT22;3547;50.774;12.918;2024-02-21T14:30:17;11.10;1.00
7014;DHT22;3547;50.774;12.918;2024-02-21T14:32:44;11.20;1.00
7014;DHT22;3547;50.774;12.918;2024-02-21T14:35:11;11.30;1.00
7014;DHT22;3547;50.774;12.918;2024-02-21T14:37:37;11.50;1.00
7014;DHT22;3547;50.774;12.918;2024-02-21T14:40:03;11.50;1.00
7014;DHT22;3547;50.774;12.918;2024-02-21T14:42:30;11.60;1.00
7014;DHT22;3547;50.774;12.918;2024-02-21T14:44:56;11.60;1.00
7014;DHT22;3547;50.774;12.918;2024-02-21T14:47:31;11.60;1.00
7014;DHT22;3547;50.774;12.918;2024-02-21T14:50:02;11.00;1.00
7014;DHT22;3547;50.774;12.918;2024-02-21T14:52:29;10.90;1.00
7014;DHT22;3547;50.774;12.918;2024-02-21T14:54:55;10.80;1.00
7014;DHT22;3547;50.774;12.918;2024-02-21T14:57:22;10.80;1.00
7014;DHT22;3547;50.774;12.918;2024-02-21T14:59:49;10.70;1.00
7014;DHT22;3547;50.774;12.918;2024-02-21T15:02:16;10.50;1.00
7014;DHT22;3547;50.774;12.918;2024-02-21T15:04:42;10.50;1.00
7014;DHT22;3547;50.774;12.918;2024-02-21T15:07:08;10.40;1.00
7014;DHT22;3547;50.774;12.918;2024-02-21T15:09:34;10.30;1.00
7014;DHT22;3547;50.774;12.918;2024-02-21T15:12:01;10.20;1.00
7014;DHT22;3547;50.774;12.918;2024-02-21T15:14:27;10.10;1.00
7014;DHT22;3547;50.774;12.918;2024-02-21T15:16:53;10.10;1.00
7014;DHT22;3547;50.774;12.918;2024-02-21T15:19:20;10.00;1.00
7014;DHT22;3547;50.774;12.918;2024-02-21T15:21:49;9.90;1.00
7014;DHT22;3547;50.774;12.918;2024-02-21T15:24:15;9.80;1.00
7014;DHT22;3547;50.774;12.918;2024-02-21T15:26:43;9.90;1.00
7014;DHT22;3547;50.774;12.918;2024-02-21T15:29:09;9.90;1.00
7014;DHT22;3547;50.774;12.918;2024-02-21T15:31:35;9.90;1.00
7014;DHT22;3547;50.774;12.918;2024-02-21T15:34:01;9.80;1.00
7014;DHT22;3547;50.774;12.918;2024-02-21T15:36:27;9.90;1.00
7014;DHT22;3547;50.774;12.918;2024-02-21T15:38:54;9.70;1.00
7014;DHT22;3547;50.774;12.918;2024-02-21T15:41:23;9.70;1.00
7014;DHT22;3547;50.774;12.918;2024-02-21T15:43:49;9.60;1.00
7014;DHT22;3547;50.774;12.918;2024-02-21T15:46:16;9.60;1.00
7014;DHT22;3547;50.774;12.918;2024-02-21T15:48:42;9.50;1.00
7014;DHT22;3547;50.774;12.918;2024-02-21T15:51:09;9.40;1.00
7014;DHT22;3547;50.774;12.918;2024-02-21T15:53:35;9.40;1.00
7014;DHT22;3547;50.774;12.918;2024-02-21T15:56:01;9.40;1.00
7014;DHT22;3547;50.774;12.918;2024-02-21T15:58:29;9.40;1.00
7014;DHT22;3547;50.774;12.918;2024-02-21T16:00:57;9.40;1.00
7014;DHT22;3547;50.774;12.918;2024-02-21T16:03:23;9.30;1.00
7014;DHT22;3547;50.774;12.918;2024-02-21T16:05:49;9.30;1.00
7014;DHT22;3547;50.774;12.918;2024-02-21T16:08:15;9.20;1.00
7014;DHT22;3547;50.774;12.918;2024-02-21T16:10:44;9.10;1.00
7014;DHT22;3547;50.774;12.918;2024-02-21T16:13:10;9.00;1.00
7014;DHT22;3547;50.774;12.918;2024-02-21T16:15:36;8.90;1.00
7014;DHT22;3547;50.774;12.918;2024-02-21T16:18:02;8.80;1.00
7014;DHT22;3547;50.774;12.918;2024-02-21T16:20:28;8.80;1.00
7014;DHT22;3547;50.774;12.918;2024-02-21T16:22:54;8.70;1.00
7014;DHT22;3547;50.774;12.918;2024-02-21T16:25:22;8.70;1.00